Time;durP1;ratioP1;P1;durP2;ratioP2;P2;SDS_P1;SDS_P2;PMS_P1;PMS_P2;Temp;Humidity;BMP_temperature;BMP_pressure;BME280_temperature;BME280_humidity;BME280_pressure;Samples;Min_cycle;Max_cycle;Signal;HPM_P1;HPM_P2
2022/12/19 00:01:39;;;;;;;;;;;12.10;99.90;;;;;;5138567;28;19934;-63
2022/12/19 00:04:06;;;;;;;;;;;12.20;99.90;;;;;;5139110;28;19960;-62
2022/12/19 00:06:31;;;;;;;;;;;12.20;99.90;;;;;;5139331;28;19912;-62
2022/12/19 00:08:59;;;;;;;;;;;12.30;99.90;;;;;;5120116;28;19911;-62
2022/12/19 00:11:25;;;;;;;;;;;12.30;99.90;;;;;;5138414;28;19907;-62
2022/12/19 00:13:51;;;;;;;;;;;12.20;99.90;;;;;;5138579;28;20324;-61
2022/12/19 00:16:18;;;;;;;;;;;12.20;99.90;;;;;;5138187;28;19919;-61
2022/12/19 00:18:44;;;;;;;;;;;12.40;99.90;;;;;;5138489;28;19908;-62
2022/12/19 00:21:11;;;;;;;;;;;12.30;99.90;;;;;;5119929;28;19912;-61
2022/12/19 00:23:37;;;;;;;;;;;12.30;99.90;;;;;;5138663;28;19907;-61
2022/12/19 00:26:10;;;;;;;;;;;12.40;99.90;;;;;;5138764;28;19974;-62
2022/12/19 00:28:36;;;;;;;;;;;12.40;99.90;;;;;;5138801;28;19912;-61
2022/12/19 00:31:02;;;;;;;;;;;12.40;99.90;;;;;;5138700;28;19914;-60
2022/12/19 00:33:28;;;;;;;;;;;12.40;99.90;;;;;;5138621;28;19915;-61
2022/12/19 00:36:00;;;;;;;;;;;12.40;99.90;;;;;;5138497;28;20274;-61
2022/12/19 00:38:26;;;;;;;;;;;12.40;99.90;;;;;;5139833;27;19908;-61
2022/12/19 00:40:52;;;;;;;;;;;12.40;99.90;;;;;;5142404;27;19956;-61
2022/12/19 00:43:17;;;;;;;;;;;12.40;99.90;;;;;;5142036;27;19907;-61
2022/12/19 00:45:43;;;;;;;;;;;12.40;99.90;;;;;;5142052;27;20343;-61
2022/12/19 00:48:09;;;;;;;;;;;12.40;99.90;;;;;;5142178;27;19972;-61
2022/12/19 00:50:34;;;;;;;;;;;12.40;99.90;;;;;;5142262;27;19919;-61
2022/12/19 00:53:00;;;;;;;;;;;12.40;99.90;;;;;;5142043;27;19947;-61
2022/12/19 00:55:26;;;;;;;;;;;12.40;99.90;;;;;;5141876;27;19911;-61
2022/12/19 00:57:51;;;;;;;;;;;12.40;99.90;;;;;;5141783;27;19914;-61
2022/12/19 01:00:17;;;;;;;;;;;12.40;99.90;;;;;;5141493;27;19915;-61
2022/12/19 01:02:43;;;;;;;;;;;12.40;99.90;;;;;;5141842;27;19990;-60
2022/12/19 01:05:09;;;;;;;;;;;12.50;99.90;;;;;;5141826;27;19907;-61
2022/12/19 01:07:35;;;;;;;;;;;12.50;99.90;;;;;;5141777;27;19964;-60
2022/12/19 01:10:00;;;;;;;;;;;12.40;99.90;;;;;;5141486;27;19915;-61
2022/12/19 01:12:44;;;;;;;;;;;12.40;99.90;;;;;;5141461;27;19954;-60
2022/12/19 01:15:10;;;;;;;;;;;12.50;99.90;;;;;;5141362;27;19907;-59
2022/12/19 01:17:36;;;;;;;;;;;12.50;99.90;;;;;;5141403;27;19915;-60
2022/12/19 01:20:02;;;;;;;;;;;12.40;99.90;;;;;;5141461;27;19907;-60
2022/12/19 01:22:28;;;;;;;;;;;12.40;99.90;;;;;;5141476;27;19972;-60
2022/12/19 01:24:54;;;;;;;;;;;12.40;99.90;;;;;;5141586;27;20344;-60
2022/12/19 01:27:19;;;;;;;;;;;12.40;99.90;;;;;;5141349;27;19914;-59
2022/12/19 01:29:45;;;;;;;;;;;12.40;99.90;;;;;;5141121;27;19907;-59
2022/12/19 01:32:10;;;;;;;;;;;12.40;99.90;;;;;;5141341;27;19943;-59
2022/12/19 01:34:36;;;;;;;;;;;12.40;99.90;;;;;;5141022;27;19982;-59
2022/12/19 01:37:02;;;;;;;;;;;12.50;99.90;;;;;;5141158;27;19998;-60
2022/12/19 01:39:27;;;;;;;;;;;12.50;99.90;;;;;;5140972;27;19913;-59
2022/12/19 01:41:53;;;;;;;;;;;12.40;99.90;;;;;;5141158;27;19908;-59
2022/12/19 01:44:18;;;;;;;;;;;12.40;99.90;;;;;;5141031;27;20016;-59
2022/12/19 01:46:48;;;;;;;;;;;12.30;99.90;;;;;;5140927;27;19908;-59
2022/12/19 01:49:36;;;;;;;;;;;12.40;99.90;;;;;;5140215;27;19907;-60
2022/12/19 01:52:03;;;;;;;;;;;12.40;99.90;;;;;;5140706;27;19914;-58
2022/12/19 01:54:31;;;;;;;;;;;12.40;99.90;;;;;;5140834;27;19915;-59
2022/12/19 01:56:57;;;;;;;;;;;12.40;99.90;;;;;;5140719;27;20008;-59
2022/12/19 01:59:35;;;;;;;;;;;12.40;99.90;;;;;;5140821;27;20454;-58
2022/12/19 02:02:10;;;;;;;;;;;12.40;99.90;;;;;;5140544;27;19911;-58
2022/12/19 02:04:35;;;;;;;;;;;12.30;99.90;;;;;;5140468;27;20270;-59
2022/12/19 02:07:03;;;;;;;;;;;12.40;99.90;;;;;;5140178;27;20005;-59
2022/12/19 02:09:29;;;;;;;;;;;12.50;99.90;;;;;;5140657;27;19911;-59
2022/12/19 02:11:57;;;;;;;;;;;12.40;99.90;;;;;;5140591;27;20423;-57
2022/12/19 02:14:23;;;;;;;;;;;12.50;99.90;;;;;;5140265;27;19908;-59
2022/12/19 02:16:53;;;;;;;;;;;12.70;99.90;;;;;;5140440;27;20389;-58
2022/12/19 02:19:37;;;;;;;;;;;12.70;99.90;;;;;;5140834;27;19907;-58
2022/12/19 02:22:16;;;;;;;;;;;12.70;99.90;;;;;;5140156;27;19908;-58
2022/12/19 02:24:51;;;;;;;;;;;12.60;99.90;;;;;;5121649;27;19907;-57
2022/12/19 02:27:22;;;;;;;;;;;12.60;99.90;;;;;;5140228;27;19926;-58
2022/12/19 02:30:03;;;;;;;;;;;12.60;99.90;;;;;;5140209;27;20006;-56
2022/12/19 02:32:47;;;;;;;;;;;12.50;99.90;;;;;;5139932;27;19913;-59
2022/12/19 02:35:33;;;;;;;;;;;12.50;99.90;;;;;;5139682;27;20378;-58
2022/12/19 02:38:11;;;;;;;;;;;12.60;99.90;;;;;;5139154;27;19915;-57
2022/12/19 02:40:45;;;;;;;;;;;12.50;99.90;;;;;;5139800;27;19999;-58
2022/12/19 02:43:12;;;;;;;;;;;12.50;99.90;;;;;;5139978;27;20044;-56
2022/12/19 02:45:38;;;;;;;;;;;12.40;99.90;;;;;;5139895;27;19915;-57
2022/12/19 02:48:05;;;;;;;;;;;12.40;99.90;;;;;;5139848;27;19911;-56
2022/12/19 02:50:38;;;;;;;;;;;12.40;99.90;;;;;;5139379;27;19990;-58
2022/12/19 02:53:04;;;;;;;;;;;12.40;99.90;;;;;;5139596;27;19911;-57
2022/12/19 02:55:30;;;;;;;;;;;12.40;99.90;;;;;;5139639;27;20286;-57
2022/12/19 02:58:04;;;;;;;;;;;12.30;99.90;;;;;;5139627;27;19908;-58
2022/12/19 03:00:30;;;;;;;;;;;12.30;99.90;;;;;;5139343;27;19916;-56
2022/12/19 03:03:09;;;;;;;;;;;12.30;99.90;;;;;;5139376;27;19929;-55
2022/12/19 03:05:41;;;;;;;;;;;12.30;99.90;;;;;;5139255;27;19908;-57
2022/12/19 03:08:12;;;;;;;;;;;12.30;99.90;;;;;;5139478;27;19911;-57
2022/12/19 03:10:48;;;;;;;;;;;12.20;99.90;;;;;;5139448;27;20362;-55
2022/12/19 03:13:20;;;;;;;;;;;12.30;99.90;;;;;;5139452;27;19931;-54
2022/12/19 03:15:46;;;;;;;;;;;12.20;99.90;;;;;;5139098;27;19916;-54
2022/12/19 03:18:12;;;;;;;;;;;12.20;99.90;;;;;;5139078;27;19955;-58
2022/12/19 03:20:49;;;;;;;;;;;12.20;99.90;;;;;;5139265;27;19908;-53
2022/12/19 03:23:15;;;;;;;;;;;12.30;99.90;;;;;;5139266;27;19907;-55
2022/12/19 03:25:43;;;;;;;;;;;12.30;99.90;;;;;;5139307;27;20251;-55
2022/12/19 03:28:18;;;;;;;;;;;12.20;99.90;;;;;;5139374;27;19907;-54
2022/12/19 03:30:44;;;;;;;;;;;12.20;99.90;;;;;;5139134;27;19907;-57
2022/12/19 03:33:10;;;;;;;;;;;12.30;99.90;;;;;;5139133;27;19908;-55
2022/12/19 03:35:36;;;;;;;;;;;12.30;99.90;;;;;;5139138;27;19911;-54
2022/12/19 03:38:03;;;;;;;;;;;12.30;99.90;;;;;;5138911;27;19998;-56
2022/12/19 03:40:29;;;;;;;;;;;12.40;99.90;;;;;;5139203;28;19967;-54
2022/12/19 03:43:10;;;;;;;;;;;12.40;99.90;;;;;;5138897;28;20009;-55
2022/12/19 03:45:43;;;;;;;;;;;12.50;99.90;;;;;;5138787;28;19907;-57
2022/12/19 03:48:20;;;;;;;;;;;12.50;99.90;;;;;;5138986;28;20464;-56
2022/12/19 03:51:07;;;;;;;;;;;12.50;99.90;;;;;;5138835;28;20314;-54
2022/12/19 03:53:44;;;;;;;;;;;12.40;99.90;;;;;;5138465;28;19907;-56
2022/12/19 03:56:14;;;;;;;;;;;12.40;99.90;;;;;;5138825;28;19911;-57
2022/12/19 03:58:44;;;;;;;;;;;12.40;99.90;;;;;;5138932;28;19915;-55
2022/12/19 04:01:09;;;;;;;;;;;12.40;99.90;;;;;;5138525;28;19922;-53
2022/12/19 04:03:35;;;;;;;;;;;12.50;99.90;;;;;;5138693;28;20398;-55
2022/12/19 04:06:02;;;;;;;;;;;12.50;99.90;;;;;;5139091;28;19968;-53
2022/12/19 04:08:29;;;;;;;;;;;12.50;99.90;;;;;;5138620;28;20366;-52
2022/12/19 04:11:00;;;;;;;;;;;12.40;99.90;;;;;;5138768;28;19908;-53
2022/12/19 04:13:34;;;;;;;;;;;12.40;99.90;;;;;;5140446;27;19915;-54
2022/12/19 04:16:09;;;;;;;;;;;12.40;99.90;;;;;;5142501;27;19915;-54
2022/12/19 04:18:36;;;;;;;;;;;12.40;99.90;;;;;;5142796;27;19908;-54
2022/12/19 04:21:06;;;;;;;;;;;12.20;99.90;;;;;;5142522;27;19914;-53
2022/12/19 04:23:34;;;;;;;;;;;12.40;99.90;;;;;;5143040;27;20003;-53
2022/12/19 04:26:01;;;;;;;;;;;12.40;99.90;;;;;;5142402;27;19907;-54
2022/12/19 04:28:39;;;;;;;;;;;12.40;99.90;;;;;;5142346;27;19912;-57
2022/12/19 04:31:05;;;;;;;;;;;12.40;99.90;;;;;;5142576;27;19954;-58
2022/12/19 04:33:31;;;;;;;;;;;12.30;99.90;;;;;;5123892;27;19907;-54
2022/12/19 04:35:56;;;;;;;;;;;12.30;99.90;;;;;;5142353;27;19961;-52
2022/12/19 04:38:22;;;;;;;;;;;12.30;99.90;;;;;;5142197;27;20010;-55
2022/12/19 04:40:47;;;;;;;;;;;12.30;99.90;;;;;;5142158;27;19915;-53
2022/12/19 04:43:13;;;;;;;;;;;12.30;99.90;;;;;;5142527;27;19908;-56
2022/12/19 04:45:39;;;;;;;;;;;12.30;99.90;;;;;;5142012;27;19908;-52
2022/12/19 04:48:05;;;;;;;;;;;12.30;99.90;;;;;;5142180;27;20239;-54
2022/12/19 04:50:31;;;;;;;;;;;12.30;99.90;;;;;;5142401;27;20427;-52
2022/12/19 04:52:57;;;;;;;;;;;12.30;99.90;;;;;;5141793;27;19931;-54
2022/12/19 04:55:22;;;;;;;;;;;12.30;99.90;;;;;;5141793;27;20341;-55
2022/12/19 04:57:48;;;;;;;;;;;12.20;99.90;;;;;;5141605;27;20399;-51
2022/12/19 05:00:14;;;;;;;;;;;12.30;99.90;;;;;;5141769;27;19915;-52
2022/12/19 05:02:40;;;;;;;;;;;12.30;99.90;;;;;;5141640;27;20362;-51
2022/12/19 05:05:06;;;;;;;;;;;12.30;99.90;;;;;;5141944;27;19908;-48
2022/12/19 05:07:31;;;;;;;;;;;12.30;99.90;;;;;;5141798;27;19951;-51
2022/12/19 05:09:58;;;;;;;;;;;12.30;99.90;;;;;;5142038;27;20408;-54
2022/12/19 05:12:24;;;;;;;;;;;12.30;99.90;;;;;;5141969;27;19908;-56
2022/12/19 05:14:49;;;;;;;;;;;12.30;99.90;;;;;;5141682;27;19919;-51
2022/12/19 05:17:15;;;;;;;;;;;12.30;99.90;;;;;;5141448;27;19916;-54
2022/12/19 05:19:41;;;;;;;;;;;12.30;99.90;;;;;;5141729;27;19955;-55
2022/12/19 05:22:06;;;;;;;;;;;12.30;99.90;;;;;;5141507;27;19964;-52
2022/12/19 05:24:32;;;;;;;;;;;12.30;99.90;;;;;;5139751;27;19907;-50
2022/12/19 05:26:57;;;;;;;;;;;12.30;99.90;;;;;;5141396;27;19907;-49
2022/12/19 05:29:23;;;;;;;;;;;12.20;99.90;;;;;;5141749;27;19915;-55
2022/12/19 05:31:49;;;;;;;;;;;12.20;99.90;;;;;;5141087;27;19908;-54
2022/12/19 05:34:15;;;;;;;;;;;12.20;99.90;;;;;;5141168;27;19915;-53
2022/12/19 05:36:40;;;;;;;;;;;12.10;99.90;;;;;;5141155;27;19912;-51
2022/12/19 05:39:06;;;;;;;;;;;12.20;99.90;;;;;;5141472;27;19911;-53
2022/12/19 05:41:31;;;;;;;;;;;12.20;99.90;;;;;;5140991;27;19915;-51
2022/12/19 05:43:57;;;;;;;;;;;12.10;99.90;;;;;;5140990;27;19914;-53
2022/12/19 05:46:23;;;;;;;;;;;12.10;99.90;;;;;;5141531;27;19907;-53
2022/12/19 05:48:49;;;;;;;;;;;12.10;99.90;;;;;;5141270;27;19952;-53
2022/12/19 05:51:15;;;;;;;;;;;12.10;99.90;;;;;;5140784;27;19907;-54
2022/12/19 05:53:41;;;;;;;;;;;12.10;99.90;;;;;;5140530;27;20389;-52
2022/12/19 05:56:13;;;;;;;;;;;12.10;99.90;;;;;;5140830;27;20379;-52
2022/12/19 05:58:39;;;;;;;;;;;12.10;99.90;;;;;;5140668;27;20291;-54
2022/12/19 06:01:09;;;;;;;;;;;12.10;99.90;;;;;;5140160;27;19962;-54
2022/12/19 06:03:35;;;;;;;;;;;12.10;99.90;;;;;;5141051;27;20002;-53
2022/12/19 06:06:02;;;;;;;;;;;12.10;99.90;;;;;;5140410;27;19951;-54
2022/12/19 06:08:28;;;;;;;;;;;12.00;99.90;;;;;;5140689;27;19914;-51
2022/12/19 06:10:54;;;;;;;;;;;12.00;99.90;;;;;;5140601;27;19908;-51
2022/12/19 06:13:19;;;;;;;;;;;11.90;99.90;;;;;;5140484;27;19907;-53
2022/12/19 06:15:45;;;;;;;;;;;12.00;99.90;;;;;;5140636;27;19915;-53
2022/12/19 06:18:10;;;;;;;;;;;12.00;99.90;;;;;;5140223;27;19931;-52
2022/12/19 06:20:36;;;;;;;;;;;11.90;99.90;;;;;;5140549;27;19950;-48
2022/12/19 06:23:02;;;;;;;;;;;12.00;99.90;;;;;;5140118;27;19907;-49
2022/12/19 06:25:27;;;;;;;;;;;12.00;99.90;;;;;;5140513;27;20345;-51
2022/12/19 06:27:53;;;;;;;;;;;12.00;99.90;;;;;;5140004;27;19919;-51
2022/12/19 06:30:18;;;;;;;;;;;12.00;99.90;;;;;;5140194;27;19907;-54
2022/12/19 06:32:44;;;;;;;;;;;12.00;99.90;;;;;;5140158;27;20403;-53
2022/12/19 06:35:10;;;;;;;;;;;11.90;99.90;;;;;;5139652;27;19914;-55
2022/12/19 06:37:35;;;;;;;;;;;12.00;99.90;;;;;;5139611;27;19957;-53
2022/12/19 06:40:01;;;;;;;;;;;11.90;99.90;;;;;;5140086;27;19915;-57
2022/12/19 06:42:26;;;;;;;;;;;12.00;99.90;;;;;;5139770;27;19908;-55
2022/12/19 06:44:53;;;;;;;;;;;12.00;99.90;;;;;;5140098;27;19907;-56
2022/12/19 06:47:19;;;;;;;;;;;12.00;99.90;;;;;;5139747;27;19907;-52
2022/12/19 06:49:47;;;;;;;;;;;12.00;99.90;;;;;;5139847;27;19908;-56
2022/12/19 06:52:13;;;;;;;;;;;12.00;99.90;;;;;;5139377;27;19915;-54
2022/12/19 06:54:40;;;;;;;;;;;12.00;99.90;;;;;;5139520;27;19908;-55
2022/12/19 06:57:06;;;;;;;;;;;12.00;99.90;;;;;;5139508;27;19912;-54
2022/12/19 06:59:32;;;;;;;;;;;12.00;99.90;;;;;;5139240;27;19911;-53
2022/12/19 07:02:00;;;;;;;;;;;12.10;99.90;;;;;;5139586;27;20286;-50
2022/12/19 07:04:43;;;;;;;;;;;12.00;99.90;;;;;;5139519;27;19991;-51
2022/12/19 07:07:09;;;;;;;;;;;12.00;99.90;;;;;;5139306;27;19915;-49
2022/12/19 07:09:34;;;;;;;;;;;12.00;99.90;;;;;;5139813;27;19908;-53
2022/12/19 07:12:00;;;;;;;;;;;12.00;99.90;;;;;;5138862;27;19933;-54
2022/12/19 07:14:26;;;;;;;;;;;12.00;99.90;;;;;;5138910;27;19939;-52
2022/12/19 07:16:53;;;;;;;;;;;12.00;99.90;;;;;;5138851;27;19965;-53
2022/12/19 07:19:19;;;;;;;;;;;12.00;99.90;;;;;;5139186;27;19954;-50
2022/12/19 07:21:44;;;;;;;;;;;12.00;99.90;;;;;;5139022;27;20258;-52
2022/12/19 07:24:11;;;;;;;;;;;12.10;99.90;;;;;;5139121;27;19994;-52
2022/12/19 07:26:37;;;;;;;;;;;12.20;99.90;;;;;;5138835;27;19957;-52
2022/12/19 07:29:02;;;;;;;;;;;12.10;99.90;;;;;;5139101;27;19908;-54
2022/12/19 07:31:28;;;;;;;;;;;12.10;99.90;;;;;;5138837;27;19936;-48
2022/12/19 07:33:54;;;;;;;;;;;12.10;99.90;;;;;;5121026;28;19918;-49
2022/12/19 07:36:19;;;;;;;;;;;12.00;99.90;;;;;;5138058;27;19911;-51
2022/12/19 07:38:45;;;;;;;;;;;12.00;99.90;;;;;;5137764;27;19918;-55
2022/12/19 07:41:11;;;;;;;;;;;12.00;99.90;;;;;;5138935;27;19967;-53
2022/12/19 07:43:36;;;;;;;;;;;12.10;99.90;;;;;;5138799;28;19960;-52
2022/12/19 07:46:02;;;;;;;;;;;12.00;99.90;;;;;;5138697;28;19915;-53
2022/12/19 07:48:29;;;;;;;;;;;12.00;99.90;;;;;;5140912;27;19908;-52
2022/12/19 07:50:55;;;;;;;;;;;12.00;99.90;;;;;;5143047;27;19907;-52
2022/12/19 07:53:20;;;;;;;;;;;12.10;99.90;;;;;;5142990;27;19907;-52
2022/12/19 07:55:49;;;;;;;;;;;12.10;99.90;;;;;;5143894;27;20090;-51
2022/12/19 07:58:14;;;;;;;;;;;12.10;99.90;;;;;;5143112;27;19907;-51
2022/12/19 08:00:40;;;;;;;;;;;12.10;99.90;;;;;;5142705;27;20002;-49
2022/12/19 08:03:06;;;;;;;;;;;12.10;99.90;;;;;;5142960;27;19914;-50
2022/12/19 08:05:33;;;;;;;;;;;12.20;99.90;;;;;;5142790;27;19936;-48
2022/12/19 08:07:58;;;;;;;;;;;12.20;99.90;;;;;;5142692;27;19908;-51
2022/12/19 08:10:24;;;;;;;;;;;12.20;99.90;;;;;;5142913;27;19911;-50
2022/12/19 08:12:50;;;;;;;;;;;12.10;99.90;;;;;;5142559;27;19918;-49
2022/12/19 08:15:16;;;;;;;;;;;12.20;99.90;;;;;;5142523;27;19907;-51
2022/12/19 08:17:41;;;;;;;;;;;12.20;99.90;;;;;;5142981;27;19951;-49
2022/12/19 08:20:07;;;;;;;;;;;12.10;99.90;;;;;;5142548;27;20385;-54
2022/12/19 08:22:33;;;;;;;;;;;12.20;99.90;;;;;;5142453;27;19991;-52
2022/12/19 08:24:59;;;;;;;;;;;12.10;99.90;;;;;;5142465;27;20366;-53
2022/12/19 08:27:25;;;;;;;;;;;12.30;99.90;;;;;;5142814;27;20267;-51
2022/12/19 08:29:51;;;;;;;;;;;12.20;99.90;;;;;;5142537;27;20308;-53
2022/12/19 08:32:17;;;;;;;;;;;12.30;99.90;;;;;;5142282;27;19917;-50
2022/12/19 08:34:43;;;;;;;;;;;12.30;99.90;;;;;;5142452;27;19908;-49
2022/12/19 08:37:09;;;;;;;;;;;12.20;99.90;;;;;;5139470;27;19916;-51
2022/12/19 08:39:35;;;;;;;;;;;12.20;99.90;;;;;;5141299;27;19914;-52
2022/12/19 08:42:01;;;;;;;;;;;12.20;99.90;;;;;;5142049;27;19907;-53
2022/12/19 08:44:26;;;;;;;;;;;12.20;99.90;;;;;;5142086;27;19912;-55
2022/12/19 08:46:52;;;;;;;;;;;12.30;99.90;;;;;;5141858;27;19929;-50
2022/12/19 08:49:18;;;;;;;;;;;12.20;99.90;;;;;;5141807;27;19908;-51
2022/12/19 08:51:44;;;;;;;;;;;12.30;99.90;;;;;;5142106;27;19908;-50
2022/12/19 08:54:11;;;;;;;;;;;12.30;99.90;;;;;;5141206;27;19912;-53
2022/12/19 08:56:37;;;;;;;;;;;12.30;99.90;;;;;;5141674;27;19911;-50
2022/12/19 08:59:02;;;;;;;;;;;12.30;99.90;;;;;;5141894;27;19953;-50
2022/12/19 09:01:28;;;;;;;;;;;12.30;99.90;;;;;;5141431;27;19916;-54
2022/12/19 09:03:57;;;;;;;;;;;12.30;99.90;;;;;;5142093;27;19959;-49
2022/12/19 09:06:22;;;;;;;;;;;12.40;99.90;;;;;;5141542;27;20394;-53
2022/12/19 09:08:48;;;;;;;;;;;12.30;99.90;;;;;;5141795;27;19915;-50
2022/12/19 09:11:15;;;;;;;;;;;12.40;99.90;;;;;;5141484;27;19916;-50
2022/12/19 09:13:41;;;;;;;;;;;12.30;99.90;;;;;;5141639;27;19907;-53
2022/12/19 09:16:17;;;;;;;;;;;12.40;99.90;;;;;;5141287;27;19919;-50
2022/12/19 09:18:45;;;;;;;;;;;12.40;99.90;;;;;;5141311;27;19947;-52
2022/12/19 09:21:12;;;;;;;;;;;12.40;99.90;;;;;;5140428;27;19936;-55
2022/12/19 09:23:38;;;;;;;;;;;12.40;99.90;;;;;;5141000;27;19907;-52
2022/12/19 09:26:06;;;;;;;;;;;12.30;99.90;;;;;;5141417;27;19955;-53
2022/12/19 09:28:32;;;;;;;;;;;12.40;99.90;;;;;;5140919;27;20434;-53
2022/12/19 09:30:59;;;;;;;;;;;12.30;99.90;;;;;;5140431;27;20015;-54
2022/12/19 09:33:25;;;;;;;;;;;12.30;99.90;;;;;;5138645;27;20000;-54
2022/12/19 09:35:51;;;;;;;;;;;12.30;99.90;;;;;;5140663;27;19988;-53
2022/12/19 09:38:18;;;;;;;;;;;12.40;99.90;;;;;;5141115;27;19918;-53
2022/12/19 09:41:06;;;;;;;;;;;12.30;99.90;;;;;;5140370;27;19907;-50
2022/12/19 09:43:49;;;;;;;;;;;12.30;99.90;;;;;;5101322;27;19908;-53
2022/12/19 09:46:16;;;;;;;;;;;12.30;99.90;;;;;;5141098;27;19907;-54
2022/12/19 09:48:42;;;;;;;;;;;12.30;99.90;;;;;;5140965;27;19914;-54
2022/12/19 09:51:46;;;;;;;;;;;12.30;99.90;;;;;;5140681;27;19908;-54
2022/12/19 09:54:15;;;;;;;;;;;12.30;99.90;;;;;;5057445;28;19909;-55
2022/12/19 09:56:42;;;;;;;;;;;12.30;99.90;;;;;;5057032;28;19990;-55
2022/12/19 09:59:23;;;;;;;;;;;12.30;99.90;;;;;;5098322;27;19915;-54
2022/12/19 10:01:51;;;;;;;;;;;12.30;99.90;;;;;;5140796;27;19977;-56
2022/12/19 10:04:17;;;;;;;;;;;12.30;99.90;;;;;;5140425;27;19911;-52
2022/12/19 10:06:43;;;;;;;;;;;12.30;99.90;;;;;;5140717;27;19908;-56
2022/12/19 10:09:13;;;;;;;;;;;12.30;99.90;;;;;;5140818;27;19907;-56
2022/12/19 10:11:39;;;;;;;;;;;12.30;99.90;;;;;;5139835;27;19931;-53
2022/12/19 10:14:04;;;;;;;;;;;12.30;99.90;;;;;;5140676;27;19907;-53
2022/12/19 10:16:36;;;;;;;;;;;12.40;99.90;;;;;;5140438;27;19951;-54
2022/12/19 10:19:07;;;;;;;;;;;12.40;99.90;;;;;;5139991;27;19993;-54
2022/12/19 10:21:54;;;;;;;;;;;12.40;99.90;;;;;;5140343;27;20006;-55
2022/12/19 10:24:43;;;;;;;;;;;12.40;99.90;;;;;;5140160;27;19953;-53
2022/12/19 10:27:30;;;;;;;;;;;12.40;99.90;;;;;;5140315;27;19969;-58
2022/12/19 10:29:55;;;;;;;;;;;12.40;99.90;;;;;;5139872;27;19914;-54
2022/12/19 10:32:36;;;;;;;;;;;12.40;99.90;;;;;;5139648;27;19907;-54
2022/12/19 10:35:10;;;;;;;;;;;12.40;99.90;;;;;;5139304;27;19930;-58
2022/12/19 10:38:05;;;;;;;;;;;12.50;99.90;;;;;;5127923;27;19915;-58
2022/12/19 10:40:33;;;;;;;;;;;12.50;99.90;;;;;;5114592;27;19956;-57
2022/12/19 10:43:10;;;;;;;;;;;12.50;99.90;;;;;;5131031;27;19967;-58
2022/12/19 10:45:48;;;;;;;;;;;12.50;99.90;;;;;;5119214;28;19908;-57
2022/12/19 10:48:16;;;;;;;;;;;12.50;99.90;;;;;;5118887;27;19912;-58
2022/12/19 10:50:42;;;;;;;;;;;12.50;99.90;;;;;;5118973;28;19907;-56
2022/12/19 10:53:10;;;;;;;;;;;12.60;99.90;;;;;;5118670;28;20041;-57
2022/12/19 10:55:38;;;;;;;;;;;12.60;99.90;;;;;;5118995;28;19915;-59
2022/12/19 10:58:22;;;;;;;;;;;12.70;99.90;;;;;;5118861;28;19995;-58
2022/12/19 11:00:51;;;;;;;;;;;12.70;99.90;;;;;;5118454;28;19915;-58
2022/12/19 11:03:17;;;;;;;;;;;12.70;99.90;;;;;;5118635;28;19920;-57
2022/12/19 11:05:46;;;;;;;;;;;12.70;99.90;;;;;;5118714;28;19911;-59
2022/12/19 11:08:20;;;;;;;;;;;12.80;99.90;;;;;;5119088;28;19943;-59
2022/12/19 11:10:50;;;;;;;;;;;12.80;99.90;;;;;;5118900;28;19908;-58
2022/12/19 11:13:34;;;;;;;;;;;12.80;99.90;;;;;;5118228;28;19919;-59
2022/12/19 11:16:02;;;;;;;;;;;12.90;99.90;;;;;;5118686;28;19916;-59
2022/12/19 11:18:46;;;;;;;;;;;12.90;99.90;;;;;;5118808;28;19919;-59
2022/12/19 11:21:14;;;;;;;;;;;12.80;99.90;;;;;;5118740;28;20367;-59
2022/12/19 11:23:52;;;;;;;;;;;12.90;99.90;;;;;;5118741;28;20260;-59
2022/12/19 11:26:30;;;;;;;;;;;12.80;99.90;;;;;;5118636;28;19915;-60
2022/12/19 11:28:57;;;;;;;;;;;12.80;99.90;;;;;;5118438;28;19961;-59
2022/12/19 11:31:25;;;;;;;;;;;13.00;99.90;;;;;;5118374;28;20003;-60
2022/12/19 11:33:54;;;;;;;;;;;13.00;99.90;;;;;;5118746;28;19908;-60
2022/12/19 11:36:34;;;;;;;;;;;13.00;99.90;;;;;;5118013;28;19912;-60
2022/12/19 11:39:01;;;;;;;;;;;13.00;99.90;;;;;;5117871;28;19914;-60
2022/12/19 11:41:30;;;;;;;;;;;13.00;99.90;;;;;;5118376;28;19953;-60
2022/12/19 11:44:00;;;;;;;;;;;13.20;99.90;;;;;;5118418;28;19908;-60
2022/12/19 11:46:33;;;;;;;;;;;13.30;99.90;;;;;;5118171;28;19908;-60
2022/12/19 11:49:03;;;;;;;;;;;13.40;99.90;;;;;;5117742;28;19999;-61
2022/12/19 11:51:43;;;;;;;;;;;13.60;99.90;;;;;;5118196;28;19930;-60
2022/12/19 11:54:09;;;;;;;;;;;14.00;99.90;;;;;;5118219;28;19914;-61
2022/12/19 11:56:35;;;;;;;;;;;14.10;99.90;;;;;;5117943;28;19994;-60
2022/12/19 11:59:11;;;;;;;;;;;13.90;99.90;;;;;;5118017;28;19911;-61
2022/12/19 12:01:48;;;;;;;;;;;13.70;99.90;;;;;;5118238;28;20303;-61
2022/12/19 12:04:14;;;;;;;;;;;13.60;99.90;;;;;;5118140;28;19915;-61
2022/12/19 12:06:43;;;;;;;;;;;13.40;99.90;;;;;;5117908;28;20278;-61
2022/12/19 12:09:17;;;;;;;;;;;13.30;99.90;;;;;;5118003;28;19908;-61
2022/12/19 12:12:04;;;;;;;;;;;13.30;99.90;;;;;;5118135;28;19912;-61
2022/12/19 12:14:36;;;;;;;;;;;13.30;99.90;;;;;;5118058;28;19908;-61
2022/12/19 12:17:17;;;;;;;;;;;13.40;99.90;;;;;;5117997;28;20016;-61
2022/12/19 12:19:48;;;;;;;;;;;13.20;99.90;;;;;;5117898;28;19912;-61
2022/12/19 12:22:26;;;;;;;;;;;13.20;99.90;;;;;;5117633;28;19915;-61
2022/12/19 12:25:10;;;;;;;;;;;13.20;99.90;;;;;;5117936;28;20013;-61
2022/12/19 12:27:55;;;;;;;;;;;13.20;99.90;;;;;;5117880;28;19908;-61
2022/12/19 12:30:21;;;;;;;;;;;13.30;99.90;;;;;;5117603;28;19928;-60
2022/12/19 12:33:07;;;;;;;;;;;13.30;99.90;;;;;;5117864;28;19908;-60
2022/12/19 12:35:38;;;;;;;;;;;13.30;99.90;;;;;;5099432;28;19967;-61
2022/12/19 12:38:03;;;;;;;;;;;13.30;99.90;;;;;;5121358;28;20360;-61
2022/12/19 12:40:35;;;;;;;;;;;13.40;99.90;;;;;;5121623;28;19908;-61
2022/12/19 12:43:19;;;;;;;;;;;13.40;99.90;;;;;;5121472;28;19915;-61
2022/12/19 12:45:45;;;;;;;;;;;13.40;99.90;;;;;;5121574;28;19931;-61
2022/12/19 12:48:20;;;;;;;;;;;13.50;99.90;;;;;;5121613;28;19908;-61
2022/12/19 12:50:47;;;;;;;;;;;13.60;99.90;;;;;;5121404;28;19907;-61
2022/12/19 12:53:17;;;;;;;;;;;13.50;99.90;;;;;;5121714;28;19907;-61
2022/12/19 12:55:43;;;;;;;;;;;13.50;99.90;;;;;;5121386;28;19908;-61
2022/12/19 12:58:27;;;;;;;;;;;13.40;99.90;;;;;;5121298;28;19908;-61
2022/12/19 13:01:10;;;;;;;;;;;13.40;99.90;;;;;;5121157;28;19916;-61
2022/12/19 13:03:39;;;;;;;;;;;13.40;99.90;;;;;;5121116;28;19999;-61
2022/12/19 13:06:06;;;;;;;;;;;13.40;99.90;;;;;;5120914;28;19915;-61
2022/12/19 13:08:45;;;;;;;;;;;13.40;99.90;;;;;;5121203;28;20313;-61
2022/12/19 13:12:58;;;;;;;;;;;13.30;99.90;;;;;;5121232;28;19934;-61
2022/12/19 13:14:00;;;;;;;;;;;13.30;99.90;;;;;;5120853;28;19907;-61
2022/12/19 13:16:43;;;;;;;;;;;13.20;99.90;;;;;;5120672;28;19963;-61
2022/12/19 13:19:15;;;;;;;;;;;13.20;99.90;;;;;;5121142;28;19908;-61
2022/12/19 13:21:59;;;;;;;;;;;13.10;99.90;;;;;;5120918;28;19987;-61
2022/12/19 13:24:24;;;;;;;;;;;13.10;99.90;;;;;;5120996;28;19908;-61
2022/12/19 13:26:51;;;;;;;;;;;13.10;99.90;;;;;;5120919;28;19912;-61
2022/12/19 13:29:34;;;;;;;;;;;13.00;99.90;;;;;;5120683;28;20313;-61
2022/12/19 13:32:06;;;;;;;;;;;13.10;99.90;;;;;;5121344;28;19907;-60
2022/12/19 13:34:34;;;;;;;;;;;13.10;99.90;;;;;;5120892;28;19915;-61
2022/12/19 13:37:20;;;;;;;;;;;13.00;99.90;;;;;;5120908;28;20283;-61
2022/12/19 13:39:51;;;;;;;;;;;13.00;99.90;;;;;;5120762;28;19929;-61
2022/12/19 13:45:18;;;;;;;;;;;13.00;99.90;;;;;;5120103;28;19915;-61
2022/12/19 13:47:44;;;;;;;;;;;13.00;99.90;;;;;;5120524;28;19929;-61
2022/12/19 13:50:28;;;;;;;;;;;13.00;99.90;;;;;;5120457;28;19908;-61
2022/12/19 13:52:54;;;;;;;;;;;13.00;99.90;;;;;;5120416;28;19908;-61
2022/12/19 13:55:19;;;;;;;;;;;13.00;99.90;;;;;;5119963;28;19915;-61
2022/12/19 13:57:51;;;;;;;;;;;12.90;99.90;;;;;;5120182;28;19920;-61
2022/12/19 14:00:21;;;;;;;;;;;13.00;99.90;;;;;;5119642;28;20306;-61
2022/12/19 14:02:57;;;;;;;;;;;13.00;99.90;;;;;;5120460;28;19912;-61
2022/12/19 14:05:25;;;;;;;;;;;13.00;99.90;;;;;;5120080;28;19911;-61
2022/12/19 14:07:51;;;;;;;;;;;13.00;99.90;;;;;;5119890;28;20278;-61
2022/12/19 14:10:20;;;;;;;;;;;13.10;99.90;;;;;;5120094;28;19968;-61
2022/12/19 14:15:34;;;;;;;;;;;13.00;99.90;;;;;;5119110;28;20141;-61
2022/12/19 14:18:18;;;;;;;;;;;13.00;99.90;;;;;;5119754;28;19912;-61
2022/12/19 14:20:43;;;;;;;;;;;13.10;99.90;;;;;;5119789;28;19929;-61
2022/12/19 14:23:09;;;;;;;;;;;13.10;99.90;;;;;;5119999;28;20320;-61
2022/12/19 14:25:49;;;;;;;;;;;13.10;99.90;;;;;;5119819;28;20330;-61
2022/12/19 14:28:20;;;;;;;;;;;13.10;99.90;;;;;;5120050;28;19960;-62
2022/12/19 14:30:50;;;;;;;;;;;13.10;99.90;;;;;;5119653;28;19999;-61
2022/12/19 14:33:23;;;;;;;;;;;13.10;99.90;;;;;;5119453;28;19911;-61
2022/12/19 14:35:51;;;;;;;;;;;13.20;99.90;;;;;;5119701;28;20389;-61